< < Back
Terminal Aerodrome Forecast


Current Version              Previous Versions:   1  2  3  4  5  6  7  8  9  

Terminal Aerodrome Forecast

928
FTUS42 KGSP 281159 CCA
TAFAVL
TAF COR
KAVL 281159Z 2812/2912 00000KT P6SM FEW005
     FM281400 34003KT P6SM VCSH BKN035
     FM282100 17005KT P6SM VCSH BKN040 PROB30 2821/2901 4SM TSRA
      BKN030CB
     FM290600 00000KT P6SM SCT024
     FM290800 00000KT 4SM BR BKN018=



Latest METAR

415
SAUS70 KWBC 281900
MTRAVL
METAR KAVL 281854Z VRB03KT 10SM FEW049 31/21 A3005 RMK AO2 LTG DSNT SE
SLP146 T03060206


USA.gov is the U.S. government's official web portal to all federal, state and local government web resources and services.